Time;durP1;ratioP1;P1;durP2;ratioP2;P2;SDS_P1;SDS_P2;PMS_P1;PMS_P2;Temp;Humidity;BMP_temperature;BMP_pressure;BME280_temperature;BME280_humidity;BME280_pressure;Samples;Min_cycle;Max_cycle;Signal;HPM_P1;HPM_P2
2022/12/26 00:01:59;;;;;;;3.50;2.40;;;10.90;1.00;;;;;;7381107;19;20011;-72
2022/12/26 00:04:29;;;;;;;6.60;2.67;;;11.00;1.00;;;;;;7397528;19;20007;-73
2022/12/26 00:07:18;;;;;;;4.43;2.63;;;10.90;1.00;;;;;;7386952;19;20042;-73
2022/12/26 00:09:49;;;;;;;3.25;2.40;;;10.90;1.00;;;;;;7385282;19;20525;-72
2022/12/26 00:12:18;;;;;;;3.25;2.58;;;10.90;1.00;;;;;;7366235;19;20017;-72
2022/12/26 00:14:48;;;;;;;4.22;2.20;;;10.90;1.00;;;;;;7366560;19;20018;-74
2022/12/26 00:17:20;;;;;;;3.60;2.65;;;11.00;1.00;;;;;;7369667;19;20093;-73
2022/12/26 00:19:50;;;;;;;4.88;2.70;;;11.00;1.00;;;;;;7363582;19;20022;-73
2022/12/26 00:22:20;;;;;;;3.63;2.15;;;11.10;1.00;;;;;;7364809;19;20019;-73
2022/12/26 00:24:50;;;;;;;5.68;2.38;;;11.00;1.00;;;;;;7385655;19;20011;-73
2022/12/26 00:27:20;;;;;;;7.15;2.67;;;11.10;1.00;;;;;;7364666;19;20011;-73
2022/12/26 00:29:49;;;;;;;4.53;2.50;;;11.20;1.00;;;;;;7364084;19;20013;-73
2022/12/26 00:32:22;;;;;;;4.38;2.67;;;11.10;1.00;;;;;;7364708;19;20031;-73
2022/12/26 00:34:52;;;;;;;4.13;2.35;;;11.00;1.00;;;;;;7361912;19;20010;-72
2022/12/26 00:37:22;;;;;;;6.22;2.63;;;11.00;1.00;;;;;;7364478;19;20029;-73
2022/12/26 00:39:52;;;;;;;3.17;2.33;;;11.00;1.00;;;;;;7388323;19;20015;-73
2022/12/26 00:42:21;;;;;;;3.83;2.55;;;11.00;1.00;;;;;;7392424;19;20017;-74
2022/12/26 00:44:51;;;;;;;3.22;2.47;;;10.90;1.00;;;;;;7391794;19;20014;-72
2022/12/26 00:47:23;;;;;;;4.97;2.95;;;10.80;1.00;;;;;;7391807;19;20026;-73
2022/12/26 00:49:53;;;;;;;3.92;2.78;;;10.80;1.00;;;;;;7389801;19;20017;-74
2022/12/26 00:52:43;;;;;;;5.47;2.70;;;10.70;1.00;;;;;;7391436;19;20014;-73
2022/12/26 00:55:13;;;;;;;4.18;3.00;;;10.60;1.00;;;;;;7361397;19;20081;-73
2022/12/26 00:57:44;;;;;;;3.42;2.78;;;10.60;1.00;;;;;;7366894;19;20027;-73
2022/12/26 01:00:15;;;;;;;3.92;2.70;;;10.60;1.00;;;;;;7383065;19;20014;-73
2022/12/26 01:02:48;;;;;;;3.38;2.50;;;10.60;1.00;;;;;;7363777;19;20089;-73
2022/12/26 01:05:18;;;;;;;5.78;2.70;;;10.50;1.00;;;;;;7362947;19;20010;-73
2022/12/26 01:07:48;;;;;;;3.50;2.80;;;10.60;1.00;;;;;;7364259;19;20498;-73
2022/12/26 01:10:38;;;;;;;4.07;2.40;;;10.60;1.00;;;;;;7362943;19;20014;-73
2022/12/26 01:13:07;;;;;;;4.93;2.90;;;10.50;1.00;;;;;;7363474;19;20506;-72
2022/12/26 01:15:38;;;;;;;6.03;2.53;;;10.40;2.00;;;;;;7385514;19;20015;-73
2022/12/26 01:18:10;;;;;;;4.82;2.63;;;10.30;2.40;;;;;;7366253;19;20021;-73
2022/12/26 01:20:40;;;;;;;4.80;2.40;;;10.20;2.70;;;;;;7362498;19;20017;-72
2022/12/26 01:23:09;;;;;;;5.30;2.75;;;10.20;2.90;;;;;;7363083;19;20014;-72
2022/12/26 01:25:41;;;;;;;3.97;2.72;;;10.30;2.90;;;;;;7362484;19;20015;-73
2022/12/26 01:28:30;;;;;;;3.92;2.78;;;10.10;3.50;;;;;;7361717;19;20059;-73
2022/12/26 01:31:04;;;;;;;3.25;2.50;;;10.10;3.90;;;;;;7361502;19;20022;-72
2022/12/26 01:33:36;;;;;;;3.85;2.80;;;10.10;4.20;;;;;;7383918;19;20014;-73
2022/12/26 01:36:07;;;;;;;6.68;2.65;;;10.10;4.10;;;;;;7362528;19;20011;-73
2022/12/26 01:38:37;;;;;;;3.40;2.55;;;10.00;4.40;;;;;;7362429;19;20411;-73
2022/12/26 01:41:19;;;;;;;4.38;2.53;;;10.20;3.70;;;;;;7369443;19;20018;-73
2022/12/26 01:43:58;;;;;;;4.78;3.10;;;10.10;4.10;;;;;;7363252;19;20493;-73
2022/12/26 01:46:32;;;;;;;4.63;3.10;;;10.10;4.10;;;;;;7360908;19;20081;-73
2022/12/26 01:49:10;;;;;;;5.22;2.70;;;10.10;4.20;;;;;;7361389;19;20119;-73
2022/12/26 01:51:44;;;;;;;5.60;2.67;;;10.10;4.10;;;;;;7384708;19;20010;-73
2022/12/26 01:54:15;;;;;;;3.90;2.80;;;10.00;4.90;;;;;;7365787;19;20030;-73
2022/12/26 01:57:08;;;;;;;5.28;2.95;;;9.90;6.00;;;;;;7366745;19;20052;-73
2022/12/26 01:59:40;;;;;;;4.25;2.70;;;9.90;5.90;;;;;;7360006;19;20090;-71
2022/12/26 02:02:11;;;;;;;3.75;2.67;;;10.00;5.20;;;;;;7362389;19;20010;-73
2022/12/26 02:07:33;;;;;;;3.70;3.00;;;9.90;5.60;;;;;;7360860;19;20021;-74
2022/12/26 02:10:04;;;;;;;6.55;2.97;;;10.00;4.50;;;;;;7359572;19;20015;-73
2022/12/26 02:12:36;;;;;;;6.22;3.30;;;10.00;4.10;;;;;;7382938;19;20014;-73
2022/12/26 02:15:13;;;;;;;4.20;2.65;;;10.00;4.70;;;;;;7361259;19;20086;-73
2022/12/26 02:17:44;;;;;;;7.88;2.80;;;9.90;6.60;;;;;;7363726;19;20010;-73
2022/12/26 02:20:25;;;;;;;4.10;2.70;;;10.00;4.40;;;;;;7360454;19;20427;-73
2022/12/26 02:23:22;;;;;;;4.82;3.00;;;10.00;4.20;;;;;;7365273;19;20519;-73
2022/12/26 02:26:31;;;;;;;4.50;3.15;;;10.00;4.90;;;;;;7359262;19;20018;-74
2022/12/26 02:29:31;;;;;;;7.22;2.75;;;9.90;5.60;;;;;;7358416;19;20022;-74
2022/12/26 02:32:13;;;;;;;3.78;2.60;;;10.00;5.00;;;;;;7361401;19;20035;-73
2022/12/26 02:34:55;;;;;;;5.65;2.38;;;10.00;5.20;;;;;;7359748;19;20424;-73
2022/12/26 02:37:39;;;;;;;3.83;2.67;;;10.00;5.60;;;;;;7360849;19;20015;-72
2022/12/26 02:40:28;;;;;;;4.63;2.92;;;10.00;5.00;;;;;;7360856;19;20482;-72
2022/12/26 02:43:01;;;;;;;3.72;2.50;;;10.20;3.50;;;;;;7360408;19;20014;-73
2022/12/26 02:48:34;;;;;;;4.35;2.90;;;10.10;4.30;;;;;;7361200;19;20010;-74
2022/12/26 03:13:55;;;;;;;3.22;2.67;;;9.90;5.60;;;;;;7393771;19;20041;-73
2022/12/26 03:19:13;;;;;;;3.17;2.63;;;9.80;6.00;;;;;;7385897;19;20112;-70
2022/12/26 03:21:48;;;;;;;6.00;2.58;;;9.80;6.70;;;;;;7383735;19;20018;-72
2022/12/26 03:24:18;;;;;;;;;;;9.80;6.80;;;;;;7390558;19;20013;-73
2022/12/26 03:26:49;;;;;;;5.07;2.50;;;9.90;6.50;;;;;;7365712;19;19923;-72
2022/12/26 03:32:06;;;;;;;5.25;2.72;;;9.80;7.00;;;;;;7366401;19;20183;-73
2022/12/26 03:34:39;;;;;;;5.40;2.50;;;9.70;7.30;;;;;;7367017;19;20010;-73
2022/12/26 03:37:42;;;;;;;4.60;2.58;;;9.70;7.70;;;;;;7365947;19;20010;-73
2022/12/26 04:20:03;;;;;;;3.60;2.33;;;10.60;4.50;;;;;;7363620;19;20006;-73
2022/12/26 04:45:01;;;;;;;3.92;2.70;;;10.60;3.50;;;;;;7364770;19;20014;-73
2022/12/26 04:47:32;;;;;;;3.88;2.42;;;10.60;4.30;;;;;;7365427;19;20021;-73
2022/12/26 04:50:10;;;;;;;4.80;2.47;;;10.70;3.50;;;;;;7362466;19;20090;-72
2022/12/26 04:55:23;;;;;;;3.40;2.40;;;10.70;3.30;;;;;;7363882;19;20474;-73
2022/12/26 04:57:54;;;;;;;3.28;2.60;;;10.60;3.70;;;;;;7311113;19;20019;-72
2022/12/26 05:00:27;;;;;;;2.53;2.08;;;10.70;3.00;;;;;;7382172;19;20019;-72
2022/12/26 05:11:19;;;;;;;2.85;2.50;;;10.70;3.00;;;;;;7362602;19;20141;-72
2022/12/26 05:13:49;;;;;;;5.05;2.50;;;10.70;2.70;;;;;;7363736;19;20502;-72
2022/12/26 05:30:00;;;;;;;4.28;2.17;;;11.00;1.00;;;;;;7360224;19;20383;-72
2022/12/26 05:35:14;;;;;;;;;;;11.10;1.00;;;;;;7362287;19;20078;-73
2022/12/26 05:37:44;;;;;;;3.10;2.10;;;11.20;1.00;;;;;;7364849;19;19970;-73
2022/12/26 05:40:14;;;;;;;3.42;2.00;;;11.20;1.00;;;;;;7364394;19;20022;-73
2022/12/26 05:42:44;;;;;;;4.15;2.22;;;11.10;1.00;;;;;;7374450;19;20010;-74
2022/12/26 05:45:14;;;;;;;3.40;2.33;;;11.20;1.00;;;;;;7383479;19;20017;-73
2022/12/26 05:47:46;;;;;;;3.08;2.20;;;11.20;1.00;;;;;;7360343;19;20026;-73
2022/12/26 05:50:20;;;;;;;3.15;2.20;;;11.20;1.00;;;;;;7360532;19;20017;-73
2022/12/26 05:52:50;;;;;;;3.55;2.20;;;11.20;1.00;;;;;;7361610;19;20021;-73
2022/12/26 05:55:21;;;;;;;4.53;2.60;;;11.20;1.00;;;;;;7362179;19;20014;-73
2022/12/26 05:57:50;;;;;;;4.72;2.17;;;11.10;1.00;;;;;;7361866;19;20018;-73
2022/12/26 06:00:20;;;;;;;4.45;2.45;;;11.00;1.00;;;;;;7385385;19;20026;-73
2022/12/26 06:02:53;;;;;;;3.47;2.05;;;11.00;1.00;;;;;;7388871;19;20006;-73
2022/12/26 06:05:23;;;;;;;4.47;2.47;;;11.00;1.00;;;;;;7389372;19;20518;-73
2022/12/26 06:07:53;;;;;;;3.75;2.20;;;11.00;1.00;;;;;;7388506;19;20015;-73
2022/12/26 06:10:25;;;;;;;3.97;2.15;;;11.00;1.00;;;;;;7357939;19;20018;-73
2022/12/26 06:12:54;;;;;;;2.95;2.35;;;11.10;1.00;;;;;;7384878;19;20014;-73
2022/12/26 06:15:24;;;;;;;4.00;2.53;;;11.10;1.00;;;;;;7362513;19;20014;-72
2022/12/26 06:17:59;;;;;;;5.90;2.58;;;11.10;1.00;;;;;;7362452;19;20081;-73
2022/12/26 06:20:28;;;;;;;4.20;2.15;;;11.00;1.00;;;;;;7382824;19;20011;-73
2022/12/26 06:22:58;;;;;;;9.07;2.47;;;11.00;1.00;;;;;;7361099;19;20086;-73
2022/12/26 06:25:28;;;;;;;2.97;2.20;;;11.00;1.00;;;;;;7360048;19;20026;-73
2022/12/26 06:27:58;;;;;;;5.53;2.50;;;10.90;1.00;;;;;;7373503;19;20022;-73
2022/12/26 06:30:27;;;;;;;3.72;2.47;;;10.90;1.00;;;;;;7390783;19;20024;-72
2022/12/26 06:33:00;;;;;;;3.65;2.20;;;10.90;1.30;;;;;;7392271;19;20046;-69
2022/12/26 06:35:30;;;;;;;2.85;2.05;;;10.80;2.00;;;;;;7398349;19;20010;-73
2022/12/26 06:37:59;;;;;;;4.35;2.70;;;11.00;1.30;;;;;;7369910;19;20022;-73
2022/12/26 06:40:29;;;;;;;3.38;2.40;;;10.90;1.00;;;;;;7369949;19;20608;-72
2022/12/26 06:42:59;;;;;;;3.17;2.47;;;10.90;1.30;;;;;;7367401;19;20410;-72
2022/12/26 06:45:29;;;;;;;3.60;2.53;;;11.00;1.00;;;;;;7368533;19;20011;-73
2022/12/26 06:48:02;;;;;;;3.25;2.22;;;10.90;1.00;;;;;;7367142;19;20033;-73
2022/12/26 06:50:31;;;;;;;4.47;2.78;;;10.90;1.20;;;;;;7386322;19;20119;-73
2022/12/26 06:53:01;;;;;;;3.20;2.53;;;11.00;1.00;;;;;;7367008;19;20482;-73
2022/12/26 06:55:31;;;;;;;4.30;2.65;;;11.00;1.00;;;;;;7366816;19;20067;-73
2022/12/26 06:58:01;;;;;;;5.68;3.00;;;11.10;1.10;;;;;;7367492;19;20025;-74
2022/12/26 07:00:31;;;;;;;4.03;2.60;;;11.00;1.00;;;;;;7365322;19;20018;-73
2022/12/26 07:03:03;;;;;;;2.95;2.47;;;11.00;1.00;;;;;;7367368;19;20010;-74
2022/12/26 07:05:33;;;;;;;3.65;2.22;;;11.10;1.10;;;;;;7388996;19;20015;-72
2022/12/26 07:08:03;;;;;;;4.25;2.30;;;11.10;1.00;;;;;;7366265;19;20085;-72
2022/12/26 07:10:36;;;;;;;4.85;2.58;;;11.00;1.00;;;;;;7368310;19;20036;-74
2022/12/26 07:13:06;;;;;;;3.83;2.40;;;11.10;1.00;;;;;;7366282;19;20081;-73
2022/12/26 07:15:36;;;;;;;3.38;2.28;;;11.00;1.00;;;;;;7367795;19;20034;-73
2022/12/26 07:18:08;;;;;;;5.30;2.70;;;11.00;1.00;;;;;;7369309;19;20011;-73
2022/12/26 07:20:39;;;;;;;4.40;2.47;;;11.10;1.00;;;;;;7388156;19;20014;-73
2022/12/26 07:23:09;;;;;;;4.03;2.70;;;10.90;1.00;;;;;;7365995;19;20028;-73
2022/12/26 07:25:39;;;;;;;3.20;2.60;;;11.00;1.00;;;;;;7366501;19;20014;-73
2022/12/26 07:28:09;;;;;;;4.60;2.58;;;10.90;1.10;;;;;;7366130;19;20081;-73
2022/12/26 07:30:38;;;;;;;3.90;2.45;;;10.90;1.80;;;;;;7369484;19;20018;-73
2022/12/26 07:33:11;;;;;;;2.90;2.47;;;10.80;2.70;;;;;;7369300;19;20415;-73
2022/12/26 07:35:41;;;;;;;3.28;2.50;;;10.80;2.00;;;;;;7391040;19;20018;-73
2022/12/26 07:38:11;;;;;;;7.63;2.75;;;10.90;2.10;;;;;;7365183;19;20474;-74
2022/12/26 07:40:41;;;;;;;3.25;2.50;;;10.90;2.20;;;;;;7365521;19;20035;-73
2022/12/26 07:43:11;;;;;;;3.65;2.78;;;10.80;2.80;;;;;;7364977;19;20010;-73
2022/12/26 07:45:40;;;;;;;2.72;2.38;;;10.80;3.20;;;;;;7365984;19;20014;-73
2022/12/26 07:48:17;;;;;;;3.70;2.67;;;10.80;3.20;;;;;;7364136;19;20572;-73
2022/12/26 07:50:48;;;;;;;4.13;3.10;;;10.80;2.80;;;;;;7379880;19;20010;-74
2022/12/26 07:53:18;;;;;;;3.97;2.90;;;10.80;3.40;;;;;;7386601;19;20048;-73
2022/12/26 07:55:48;;;;;;;5.10;2.65;;;10.80;3.00;;;;;;7365541;19;20014;-73
2022/12/26 07:58:18;;;;;;;4.78;2.90;;;10.80;3.20;;;;;;7364033;19;20039;-73
2022/12/26 08:00:48;;;;;;;6.75;3.08;;;10.70;4.10;;;;;;7365619;19;20070;-73
2022/12/26 08:03:20;;;;;;;6.40;3.15;;;10.80;3.80;;;;;;7364938;19;20018;-73
2022/12/26 08:05:51;;;;;;;4.65;2.50;;;10.80;3.90;;;;;;7364603;19;20042;-73
2022/12/26 08:08:21;;;;;;;3.65;2.83;;;10.80;3.50;;;;;;7385254;19;20470;-73
2022/12/26 08:10:51;;;;;;;4.63;2.60;;;10.80;3.20;;;;;;7364927;19;20627;-73
2022/12/26 08:13:20;;;;;;;3.50;3.03;;;10.80;3.20;;;;;;7366790;19;20488;-73
2022/12/26 08:15:50;;;;;;;4.03;3.13;;;10.80;3.10;;;;;;7366027;19;20022;-73
2022/12/26 08:18:22;;;;;;;5.47;2.72;;;10.80;2.80;;;;;;7366801;19;20026;-73
2022/12/26 08:20:54;;;;;;;4.10;2.88;;;10.80;3.60;;;;;;7364944;19;20693;-74
2022/12/26 08:23:24;;;;;;;3.33;2.85;;;10.70;4.30;;;;;;7385668;19;20028;-73
2022/12/26 08:25:54;;;;;;;4.95;3.00;;;10.80;4.30;;;;;;7365825;19;20078;-74
2022/12/26 08:28:24;;;;;;;4.80;3.50;;;10.80;4.20;;;;;;7366050;19;20384;-74
2022/12/26 08:30:54;;;;;;;4.22;2.72;;;10.70;4.50;;;;;;7366725;19;20011;-72
2022/12/26 08:33:26;;;;;;;6.60;3.83;;;10.70;4.70;;;;;;7364561;19;20014;-72
2022/12/26 08:35:56;;;;;;;4.63;3.20;;;10.70;4.50;;;;;;7364230;19;20031;-72
2022/12/26 08:38:26;;;;;;;3.80;3.00;;;10.80;4.20;;;;;;7384279;19;20483;-72
2022/12/26 08:41:00;;;;;;;4.30;3.28;;;10.80;4.10;;;;;;7364352;19;20018;-73
2022/12/26 08:43:31;;;;;;;4.15;2.80;;;10.80;4.30;;;;;;7363696;19;20011;-72
2022/12/26 08:46:22;;;;;;;4.35;3.40;;;10.80;3.80;;;;;;7364066;19;20078;-74
2022/12/26 08:48:54;;;;;;;5.00;3.40;;;10.80;3.60;;;;;;7362435;19;20043;-72
2022/12/26 08:51:26;;;;;;;4.22;3.30;;;10.80;4.10;;;;;;7363770;19;20014;-73
2022/12/26 08:53:57;;;;;;;4.35;2.97;;;10.90;4.70;;;;;;7362522;19;20034;-72
2022/12/26 08:56:28;;;;;;;5.13;3.60;;;10.80;7.30;;;;;;7383016;19;20010;-72
2022/12/26 08:58:58;;;;;;;6.10;3.28;;;10.70;10.30;;;;;;7361541;19;20021;-71
2022/12/26 09:01:30;;;;;;;5.75;3.22;;;10.70;11.90;;;;;;7363771;19;20018;-71
2022/12/26 09:04:05;;;;;;;5.97;4.03;;;10.60;16.10;;;;;;7363172;19;20011;-71
2022/12/26 09:06:37;;;;;;;4.68;3.95;;;10.40;19.40;;;;;;7363204;19;20619;-70
2022/12/26 09:09:10;;;;;;;5.85;4.53;;;10.20;24.10;;;;;;7361692;19;20010;-71
2022/12/26 09:11:41;;;;;;;7.70;4.70;;;10.10;26.80;;;;;;7384138;19;20010;-70
2022/12/26 09:14:11;;;;;;;8.55;4.80;;;10.00;29.20;;;;;;7367032;19;20081;-70
2022/12/26 09:16:45;;;;;;;7.95;5.07;;;10.00;31.90;;;;;;7365371;19;20014;-71
2022/12/26 09:19:23;;;;;;;6.68;4.88;;;10.00;33.00;;;;;;7360688;19;20034;-70
2022/12/26 09:22:49;;;;;;;5.88;4.43;;;10.00;34.70;;;;;;7363764;19;20031;-72
2022/12/26 09:24:44;;;;;;;7.28;4.75;;;10.00;35.90;;;;;;7364505;19;20085;-69
2022/12/26 09:27:14;;;;;;;7.53;4.38;;;10.00;37.40;;;;;;7366744;19;20010;-69
2022/12/26 09:29:43;;;;;;;7.78;4.50;;;10.00;39.10;;;;;;7381720;19;20018;-71
2022/12/26 09:32:13;;;;;;;8.35;4.97;;;10.00;39.50;;;;;;7364190;19;20018;-72
2022/12/26 09:34:45;;;;;;;5.85;4.53;;;10.00;40.50;;;;;;7361864;19;20014;-72
2022/12/26 09:37:15;;;;;;;12.75;5.72;;;9.90;41.80;;;;;;7362684;19;20017;-71
2022/12/26 09:39:45;;;;;;;13.65;5.68;;;9.90;42.50;;;;;;7362038;19;20382;-71
2022/12/26 09:42:25;;;;;;;6.05;4.78;;;9.90;45.50;;;;;;7362279;19;20021;-73
2022/12/26 09:45:02;;;;;;;8.07;4.80;;;9.90;46.50;;;;;;7365946;19;20014;-72
2022/12/26 09:47:35;;;;;;;11.10;5.85;;;9.80;47.90;;;;;;7385414;19;20022;-72
2022/12/26 09:50:14;;;;;;;9.10;5.25;;;9.90;48.30;;;;;;7361327;19;20082;-72
2022/12/26 09:52:50;;;;;;;19.20;8.05;;;9.90;50.10;;;;;;7361784;19;20011;-71
2022/12/26 09:55:31;;;;;;;8.90;5.35;;;10.00;49.40;;;;;;7361627;19;20438;-72
2022/12/26 09:58:06;;;;;;;5.80;3.75;;;10.00;49.60;;;;;;7361385;19;20470;-72
2022/12/26 10:00:45;;;;;;;6.25;3.58;;;10.00;49.60;;;;;;7360435;19;20049;-70
2022/12/26 10:03:15;;;;;;;3.95;3.05;;;10.00;49.80;;;;;;7364048;19;20021;-71
2022/12/26 10:06:22;;;;;;;4.63;3.28;;;10.10;50.30;;;;;;7383316;19;20015;-71
2022/12/26 10:09:34;;;;;;;5.43;3.03;;;10.10;50.00;;;;;;7256644;19;2004756;-71
2022/12/26 10:12:26;;;;;;;6.70;2.78;;;10.10;49.50;;;;;;7364159;19;20018;-73
2022/12/26 10:15:00;;;;;;;2.95;2.25;;;10.20;47.70;;;;;;7363199;19;20010;-71
2022/12/26 10:17:38;;;;;;;3.80;2.00;;;10.20;46.70;;;;;;7387470;19;20022;-69
2022/12/26 10:20:23;;;;;;;3.72;1.90;;;10.20;44.20;;;;;;7364723;19;20017;-71
2022/12/26 10:23:06;;;;;;;;;;;10.20;42.50;;;;;;7364995;19;20010;-71
2022/12/26 10:25:43;;;;;;;5.00;1.65;;;10.30;40.10;;;;;;7365707;19;19926;-72
2022/12/26 10:28:19;;;;;;;2.60;1.33;;;10.20;38.40;;;;;;7362092;19;20091;-72
2022/12/26 10:30:51;;;;;;;1.98;1.60;;;10.30;39.80;;;;;;7362573;19;20021;-72
2022/12/26 10:33:30;;;;;;;3.13;1.50;;;10.30;38.70;;;;;;7361160;19;20015;-72
2022/12/26 10:36:01;;;;;;;3.72;1.95;;;10.30;38.50;;;;;;7361934;19;20334;-72
2022/12/26 10:38:38;;;;;;;1.85;1.40;;;10.30;38.30;;;;;;7382963;19;20381;-75
2022/12/26 10:41:14;;;;;;;3.28;1.60;;;10.30;37.80;;;;;;7359569;19;20011;-72
2022/12/26 10:43:44;;;;;;;1.90;1.38;;;10.30;37.30;;;;;;7361230;19;20022;-71
2022/12/26 10:46:47;;;;;;;3.13;1.65;;;10.30;37.40;;;;;;7361089;19;20451;-72
2022/12/26 10:49:20;;;;;;;1.70;1.20;;;10.30;37.30;;;;;;7364421;19;20018;-72
2022/12/26 10:51:51;;;;;;;4.28;1.63;;;10.30;37.60;;;;;;7361996;19;20018;-73
2022/12/26 10:54:23;;;;;;;1.95;1.40;;;10.30;37.30;;;;;;7361059;19;20716;-71
2022/12/26 10:56:54;;;;;;;2.53;1.63;;;10.30;39.20;;;;;;7362985;19;20018;-74
2022/12/26 10:59:41;;;;;;;3.85;1.80;;;10.20;40.30;;;;;;7383194;19;20044;-71
2022/12/26 11:02:29;;;;;;;1.90;1.52;;;10.20;41.40;;;;;;7360661;19;20011;-72
2022/12/26 11:05:05;;;;;;;2.60;1.45;;;10.20;41.40;;;;;;7362008;19;20014;-72
2022/12/26 11:07:58;;;;;;;3.88;2.30;;;10.20;41.70;;;;;;7361943;19;20018;-73
2022/12/26 11:10:31;;;;;;;3.33;2.00;;;10.20;42.60;;;;;;7358332;19;20014;-72
2022/12/26 11:13:03;;;;;;;2.78;2.03;;;10.20;43.10;;;;;;7360853;19;20018;-72
2022/12/26 11:15:36;;;;;;;3.88;2.28;;;10.20;43.50;;;;;;7362023;19;20389;-72
2022/12/26 11:18:15;;;;;;;3.83;2.30;;;10.20;44.50;;;;;;7363256;19;20014;-72
2022/12/26 11:20:46;;;;;;;4.18;2.20;;;10.20;45.80;;;;;;7391852;19;20580;-71
2022/12/26 11:23:25;;;;;;;8.38;2.70;;;10.20;46.00;;;;;;7366345;19;20034;-72
2022/12/26 11:25:59;;;;;;;3.88;2.30;;;10.20;47.20;;;;;;7365459;19;20011;-72
2022/12/26 11:28:33;;;;;;;5.53;2.70;;;10.10;48.00;;;;;;7365070;19;20018;-71
2022/12/26 11:31:05;;;;;;;6.05;3.60;;;10.10;49.30;;;;;;7365248;19;20672;-72
2022/12/26 11:33:43;;;;;;;6.18;3.08;;;10.10;49.50;;;;;;7365793;19;20007;-71
2022/12/26 11:36:20;;;;;;;5.18;3.08;;;10.10;49.20;;;;;;7365489;19;20086;-71
2022/12/26 11:38:54;;;;;;;4.82;2.88;;;10.10;48.00;;;;;;7365563;19;20022;-73
2022/12/26 11:41:38;;;;;;;;;;;10.10;47.00;;;;;;7386774;19;20352;-71
2022/12/26 11:44:22;;;;;;;2.53;2.22;;;10.20;46.60;;;;;;7364986;19;20473;-71
2022/12/26 11:46:57;;;;;;;4.35;2.50;;;10.20;43.60;;;;;;7364144;19;20402;-71
2022/12/26 11:49:32;;;;;;;4.65;2.80;;;10.30;42.70;;;;;;7362902;19;20010;-72
2022/12/26 11:52:03;;;;;;;;;;;10.30;41.60;;;;;;7365227;19;20063;-72
2022/12/26 11:54:36;;;;;;;4.68;2.78;;;10.30;40.50;;;;;;7364173;19;19918;-72
2022/12/26 11:57:21;;;;;;;5.72;3.25;;;10.40;39.60;;;;;;7365800;19;20335;-73
2022/12/26 11:59:54;;;;;;;4.15;2.10;;;10.40;39.20;;;;;;7362230;19;20107;-71
2022/12/26 12:02:28;;;;;;;3.20;2.10;;;10.50;38.70;;;;;;7386299;19;20021;-72
2022/12/26 12:05:03;;;;;;;3.17;1.95;;;10.50;37.50;;;;;;7364320;19;20035;-71
2022/12/26 12:07:53;;;;;;;3.92;1.77;;;10.50;33.60;;;;;;7363497;19;20089;-72
2022/12/26 12:10:47;;;;;;;3.10;1.35;;;10.50;29.90;;;;;;7364138;19;20046;-73
2022/12/26 12:13:39;;;;;;;2.88;1.20;;;10.60;27.60;;;;;;7367870;19;20010;-71
2022/12/26 12:16:32;;;;;;;4.32;1.17;;;10.70;27.90;;;;;;7366895;19;20016;-72
2022/12/26 12:19:17;;;;;;;1.70;1.05;;;10.80;25.60;;;;;;7363664;19;20090;-73
2022/12/26 12:21:56;;;;;;;2.92;1.15;;;10.90;23.40;;;;;;7364965;19;20014;-71
2022/12/26 12:24:37;;;;;;;1.95;0.82;;;11.00;22.70;;;;;;7363513;19;20016;-72
2022/12/26 12:27:16;;;;;;;1.40;0.98;;;11.00;20.80;;;;;;7364330;19;20018;-71
2022/12/26 12:30:03;;;;;;;3.92;1.23;;;11.10;20.40;;;;;;7382685;19;20022;-72
2022/12/26 12:32:47;;;;;;;2.53;1.27;;;11.00;18.90;;;;;;7361629;19;20524;-72
2022/12/26 12:35:45;;;;;;;1.92;1.00;;;11.00;19.50;;;;;;7364375;19;20010;-72
2022/12/26 12:38:31;;;;;;;1.10;0.73;;;10.90;18.70;;;;;;7363280;19;20014;-71
2022/12/26 12:41:19;;;;;;;1.13;0.77;;;10.90;17.50;;;;;;7363508;19;20039;-71
2022/12/26 12:43:57;;;;;;;1.38;0.93;;;10.80;17.50;;;;;;7363667;19;20014;-71
2022/12/26 12:46:38;;;;;;;1.10;0.70;;;10.80;18.00;;;;;;7363986;19;20133;-71
2022/12/26 12:49:24;;;;;;;1.88;1.20;;;10.80;18.60;;;;;;7363680;19;20090;-71
2022/12/26 12:52:08;;;;;;;1.75;0.80;;;10.80;18.80;;;;;;7362753;19;20106;-72
2022/12/26 12:55:17;;;;;;;1.00;0.70;;;10.70;19.50;;;;;;7363611;19;20039;-72
2022/12/26 12:57:54;;;;;;;1.90;0.80;;;10.70;19.80;;;;;;7382137;19;20094;-72
2022/12/26 13:00:26;;;;;;;2.55;0.98;;;10.70;19.90;;;;;;7377361;19;20021;-67
2022/12/26 13:03:04;;;;;;;1.60;1.02;;;10.60;20.60;;;;;;7366263;19;20019;-72
2022/12/26 13:05:43;;;;;;;1.38;1.10;;;10.60;21.50;;;;;;7386043;19;20025;-70
2022/12/26 13:08:18;;;;;;;3.28;1.38;;;10.60;20.90;;;;;;7365685;19;20035;-69
2022/12/26 13:10:53;;;;;;;1.30;1.20;;;10.60;20.90;;;;;;7364906;19;20346;-73
2022/12/26 13:13:28;;;;;;;1.85;1.35;;;10.60;20.60;;;;;;7365595;19;20489;-71
2022/12/26 13:16:06;;;;;;;1.58;1.13;;;10.60;19.90;;;;;;7364519;19;20010;-71
2022/12/26 13:18:44;;;;;;;1.30;1.00;;;10.60;20.70;;;;;;7365450;19;20116;-71
2022/12/26 13:21:15;;;;;;;1.27;0.80;;;10.60;20.70;;;;;;7361845;19;20017;-71
2022/12/26 13:26:33;;;;;;;1.33;1.10;;;10.60;19.40;;;;;;7362321;19;20010;-71
2022/12/26 13:29:08;;;;;;;1.92;1.30;;;10.70;18.70;;;;;;7360700;19;20022;-70
2022/12/26 13:31:42;;;;;;;2.92;1.23;;;10.60;19.80;;;;;;7361011;19;20018;-71
2022/12/26 13:34:17;;;;;;;2.75;1.48;;;10.70;20.40;;;;;;7362809;19;20014;-70
2022/12/26 13:36:49;;;;;;;3.45;1.35;;;10.70;20.00;;;;;;7362149;19;20047;-71
2022/12/26 13:39:43;;;;;;;1.95;1.52;;;10.70;19.80;;;;;;7360602;19;20010;-72
2022/12/26 13:45:33;;;;;;;1.98;1.10;;;10.70;19.80;;;;;;7362564;19;20454;-72
2022/12/26 13:48:03;;;;;;;1.60;1.00;;;10.80;18.70;;;;;;7362040;19;20026;-72
2022/12/26 13:50:52;;;;;;;1.30;0.80;;;10.70;18.60;;;;;;7380996;19;20443;-72
2022/12/26 13:53:31;;;;;;;1.65;0.70;;;10.70;17.40;;;;;;7360699;19;20020;-72
2022/12/26 13:56:03;;;;;;;1.65;1.10;;;10.70;18.40;;;;;;7361564;19;20024;-71
2022/12/26 13:58:51;;;;;;;1.60;0.93;;;10.80;18.80;;;;;;7360518;19;20014;-70
2022/12/26 14:01:40;;;;;;;1.08;0.80;;;10.80;18.20;;;;;;7361423;19;20059;-71
2022/12/26 14:04:28;;;;;;;2.88;1.13;;;10.80;18.10;;;;;;7364356;19;20675;-71
2022/12/26 14:07:22;;;;;;;1.05;0.93;;;10.80;17.90;;;;;;7364261;19;20506;-72
2022/12/26 14:10:03;;;;;;;2.38;1.10;;;10.80;18.30;;;;;;7363936;19;20006;-73
2022/12/26 14:12:55;;;;;;;2.03;1.20;;;10.80;18.00;;;;;;7360201;19;20014;-72
2022/12/26 14:15:40;;;;;;;1.30;0.90;;;10.80;17.60;;;;;;7362113;19;20010;-72
2022/12/26 14:18:24;;;;;;;2.45;1.05;;;10.80;18.60;;;;;;7364346;19;20003;-72
2022/12/26 14:21:13;;;;;;;1.35;1.10;;;10.80;17.90;;;;;;7361006;19;20466;-72
2022/12/26 14:23:53;;;;;;;1.45;0.73;;;10.80;17.00;;;;;;7382559;19;20015;-72
2022/12/26 14:26:38;;;;;;;0.88;0.60;;;10.80;17.20;;;;;;7360252;19;20091;-71
2022/12/26 14:29:21;;;;;;;1.33;0.93;;;10.80;17.00;;;;;;7358820;19;20017;-71
2022/12/26 14:32:03;;;;;;;0.75;0.60;;;10.80;18.20;;;;;;7359496;19;20022;-72
2022/12/26 14:34:49;;;;;;;0.82;0.73;;;10.80;17.10;;;;;;7360822;19;20097;-72
2022/12/26 14:37:23;;;;;;;0.80;0.70;;;10.80;17.70;;;;;;7360279;19;20393;-72
2022/12/26 14:40:07;;;;;;;;;;;10.70;18.10;;;;;;7359386;19;20089;-72
2022/12/26 14:43:12;;;;;;;1.35;0.93;;;10.70;18.20;;;;;;7360189;19;20350;-72
2022/12/26 14:45:47;;;;;;;;;;;10.70;18.30;;;;;;7360547;19;20028;-72
2022/12/26 14:48:59;;;;;;;1.27;0.90;;;10.70;19.40;;;;;;7359457;19;20374;-73
2022/12/26 14:51:38;;;;;;;1.08;0.95;;;10.70;17.90;;;;;;7360593;19;20007;-73
2022/12/26 14:54:38;;;;;;;2.15;0.85;;;10.60;18.30;;;;;;7361737;19;20017;-72
2022/12/26 14:57:53;;;;;;;2.00;1.38;;;10.60;18.30;;;;;;7367525;19;20029;-72
2022/12/26 15:00:34;;;;;;;2.35;1.20;;;10.60;19.70;;;;;;7367520;19;20089;-73
2022/12/26 15:03:25;;;;;;;1.70;1.30;;;10.60;20.20;;;;;;7370326;19;20011;-71
2022/12/26 15:06:15;;;;;;;2.03;1.00;;;10.50;19.90;;;;;;7370138;19;20474;-73
2022/12/26 15:09:05;;;;;;;1.35;0.95;;;10.50;20.40;;;;;;7387176;19;20390;-72
2022/12/26 15:12:02;;;;;;;1.63;1.02;;;10.50;20.20;;;;;;7366651;19;20022;-73
2022/12/26 15:15:04;;;;;;;3.47;1.38;;;10.50;20.60;;;;;;7368027;19;20110;-72
2022/12/26 15:17:48;;;;;;;3.10;1.42;;;10.50;22.40;;;;;;7368561;19;20014;-72
2022/12/26 15:20:51;;;;;;;2.92;1.40;;;10.50;21.50;;;;;;7363484;19;20017;-73
2022/12/26 15:23:47;;;;;;;2.28;1.40;;;10.50;20.90;;;;;;7366108;19;20018;-72
2022/12/26 15:26:43;;;;;;;2.10;1.35;;;10.50;21.50;;;;;;7366287;19;20010;-73
2022/12/26 15:29:33;;;;;;;1.65;1.30;;;10.40;22.30;;;;;;7363853;19;20010;-72
2022/12/26 15:32:09;;;;;;;2.15;1.40;;;10.50;21.90;;;;;;7365876;19;20017;-73
2022/12/26 15:35:17;;;;;;;1.63;1.33;;;10.40;22.30;;;;;;7365000;19;20021;-73
2022/12/26 15:38:06;;;;;;;1.52;1.20;;;10.50;22.40;;;;;;7363049;19;20011;-72
2022/12/26 15:40:43;;;;;;;1.40;1.10;;;10.50;21.90;;;;;;7365208;19;20006;-72
2022/12/26 15:43:44;;;;;;;2.13;1.15;;;10.50;22.20;;;;;;7366538;19;20313;-73
2022/12/26 15:46:21;;;;;;;2.05;1.25;;;10.40;22.30;;;;;;7365795;19;20086;-73
2022/12/26 15:49:15;;;;;;;2.60;1.55;;;10.40;22.70;;;;;;7364774;19;20022;-72
2022/12/26 15:51:57;;;;;;;2.10;1.30;;;10.40;23.60;;;;;;7366197;19;20025;-73
2022/12/26 15:54:54;;;;;;;1.95;1.42;;;10.40;23.50;;;;;;7364519;19;20014;-72
2022/12/26 15:57:32;;;;;;;3.22;1.45;;;10.40;23.00;;;;;;7368600;19;20014;-72